6OH5 weather

Connor Heliport
Powell, Ohio, United States

Public forecast

Using degrees Fahrenheit for public forecast. Weather courtesy of forecast.io.

Closest aviation weather report (METAR) to Connor Heliport

Closest report is The Ohio State University Airport - Don Scott Field, 5.0 nm (9.3 km) S. Retrieved 2020/06/01 18:53 UTC (11 minutes ago):

KOSU 011853Z 00000KT 10SM CLR 22/01 A3025 RMK AO2 SLP243 T02220011

Closest aviation forecast (TAF) to Connor Heliport

Closest forecast is John Glenn Columbus International Airport, 12.4 nm (22.9 km) SE. Retrieved 2020/06/01 18:42 UTC (22 minutes ago):

TAF KCMH 011739Z 0118/0218 VRB04KT P6SM SCT250 FM012200 20007KT P6SM BKN090 FM020100 VRB03KT P6SM BKN090 FM020900 21008KT P6SM SCT090 FM021500 25013G23KT P6SM FEW250